Maersk Batur — 9V8207 — position and weather

sailwx.info

Track history (hours):
 
Tides and Currents Weather Stations Pressure Air Temp Water Temp Dewpoint Dewpoint Depression Visibility Wind Speed Wind Dir Waves Ship Positions

Maersk Batur

Last reported at 2018-Jul-20 11:33 UTC. Time now 2018-Jul-20 23:46 UTC.
Position N 09°35' W 079°47'.

Length 223 m; draft 12 m.

Type: Ship (hazmat cat A). MMSI: 564398000.

Date/timePositionNaut miles runAvg speedWind from/ knotsBaromVisibWave heightAir tempDewpointWater temp
2018-Jul-20 11:33N 09°35' W 079°47'215.3
2018-Jul-20 11:25N 09°34' W 079°48'615.1
2018-Jul-20 11:01N 09°29' W 079°52'5 9.9
2018-Jul-20 10:30N 09°24' W 079°54'3 5.3
2018-Jul-20 10:00N 09°22' W 079°53'0 0.0
2018-Jul-20 09:28N 09°22' W 079°53'0 0.0
2018-Jul-20 08:58N 09°22' W 079°53'0 0.0
2018-Jul-20 08:28N 09°22' W 079°53'0 0.0
2018-Jul-20 07:58N 09°22' W 079°53'0 0.0
2018-Jul-20 07:28N 09°22' W 079°53'0 0.0
2018-Jul-20 06:58N 09°22' W 079°53'0 0.0
2018-Jul-20 06:28N 09°22' W 079°53'0 0.0
2018-Jul-20 05:58N 09°22' W 079°53'0 0.0
2018-Jul-20 05:28N 09°22' W 079°53'0 0.0
2018-Jul-20 04:58N 09°22' W 079°53'0 0.0
2018-Jul-20 04:28N 09°22' W 079°53'0 0.0
2018-Jul-20 03:58N 09°22' W 079°53'0 0.0
2018-Jul-20 03:28N 09°22' W 079°53'0 0.0
2018-Jul-20 02:58N 09°22' W 079°53'0 0.0
2018-Jul-20 02:28N 09°22' W 079°53'0 0.0
2018-Jul-20 01:58N 09°22' W 079°53'0 0.0
2018-Jul-20 01:28N 09°22' W 079°53'0 0.0
2018-Jul-20 00:58N 09°22' W 079°53'0 0.0
2018-Jul-20 00:28N 09°22' W 079°53'0 0.0
2018-Jul-19 23:58N 09°22' W 079°53'0 0.0
2018-Jul-19 23:28N 09°22' W 079°53'0 0.0
2018-Jul-19 22:58N 09°22' W 079°53'0 0.0
2018-Jul-19 22:28N 09°22' W 079°53'0 0.0
2018-Jul-19 21:58N 09°22' W 079°53'0 0.0
2018-Jul-19 21:28N 09°22' W 079°53'0 0.0
2018-Jul-19 20:58N 09°22' W 079°53'0 0.0
2018-Jul-19 20:28N 09°22' W 079°53'0 0.0
2018-Jul-19 19:58N 09°22' W 079°53'0 0.0
2018-Jul-19 19:28N 09°22' W 079°53'0 0.0
2018-Jul-19 19:00N 09°22' W 079°53'1 1.6
2018-Jul-19 18:31N 09°22' W 079°54'2 3.2
2018-Jul-19 18:00N 09°23' W 079°55'3 6.7
2018-Jul-19 17:30N 09°20' W 079°55'3 5.5
2018-Jul-19 17:00N 09°17' W 079°55'0 0.3
2018-Jul-19 16:30N 09°17' W 079°55'0 0.6
2018-Jul-19 16:00N 09°16' W 079°55'0 0.7
2018-Jul-19 15:30N 09°16' W 079°55'1 2.8
2018-Jul-19 15:00N 09°15' W 079°55'  
Track history (hours):
 
Tides and Currents Weather Stations Pressure Air Temp Water Temp Dewpoint Dewpoint Depression Visibility Wind Speed Wind Dir Waves Ship Positions

Maersk Batur

Last reported at 2018-Jul-20 11:33 UTC. Time now 2018-Jul-20 23:46 UTC.
Position N 09°35' W 079°47'.

Length 223 m; draft 12 m.

Type: Ship (hazmat cat A). MMSI: 564398000.

Date/timePositionNaut miles runAvg speedWind from/ knotsBaromVisibWave heightAir tempDewpointWater temp
2018-Jul-20 11:33N 09°35' W 079°47'215.3
2018-Jul-20 11:25N 09°34' W 079°48'615.1
2018-Jul-20 11:01N 09°29' W 079°52'5 9.9
2018-Jul-20 10:30N 09°24' W 079°54'3 5.3
2018-Jul-20 10:00N 09°22' W 079°53'0 0.0
2018-Jul-20 09:28N 09°22' W 079°53'0 0.0
2018-Jul-20 08:58N 09°22' W 079°53'0 0.0
2018-Jul-20 08:28N 09°22' W 079°53'0 0.0
2018-Jul-20 07:58N 09°22' W 079°53'0 0.0
2018-Jul-20 07:28N 09°22' W 079°53'0 0.0
2018-Jul-20 06:58N 09°22' W 079°53'0 0.0
2018-Jul-20 06:28N 09°22' W 079°53'0 0.0
2018-Jul-20 05:58N 09°22' W 079°53'0 0.0
2018-Jul-20 05:28N 09°22' W 079°53'0 0.0
2018-Jul-20 04:58N 09°22' W 079°53'0 0.0
2018-Jul-20 04:28N 09°22' W 079°53'0 0.0
2018-Jul-20 03:58N 09°22' W 079°53'0 0.0
2018-Jul-20 03:28N 09°22' W 079°53'0 0.0
2018-Jul-20 02:58N 09°22' W 079°53'0 0.0
2018-Jul-20 02:28N 09°22' W 079°53'0 0.0
2018-Jul-20 01:58N 09°22' W 079°53'0 0.0
2018-Jul-20 01:28N 09°22' W 079°53'0 0.0
2018-Jul-20 00:58N 09°22' W 079°53'0 0.0
2018-Jul-20 00:28N 09°22' W 079°53'0 0.0
2018-Jul-19 23:58N 09°22' W 079°53'0 0.0
2018-Jul-19 23:28N 09°22' W 079°53'0 0.0
2018-Jul-19 22:58N 09°22' W 079°53'0 0.0
2018-Jul-19 22:28N 09°22' W 079°53'0 0.0
2018-Jul-19 21:58N 09°22' W 079°53'0 0.0
2018-Jul-19 21:28N 09°22' W 079°53'0 0.0
2018-Jul-19 20:58N 09°22' W 079°53'0 0.0
2018-Jul-19 20:28N 09°22' W 079°53'0 0.0
2018-Jul-19 19:58N 09°22' W 079°53'0 0.0
2018-Jul-19 19:28N 09°22' W 079°53'0 0.0
2018-Jul-19 19:00N 09°22' W 079°53'1 1.6
2018-Jul-19 18:31N 09°22' W 079°54'2 3.2
2018-Jul-19 18:00N 09°23' W 079°55'3 6.7
2018-Jul-19 17:30N 09°20' W 079°55'3 5.5
2018-Jul-19 17:00N 09°17' W 079°55'0 0.3
2018-Jul-19 16:30N 09°17' W 079°55'0 0.6
2018-Jul-19 16:00N 09°16' W 079°55'0 0.7
2018-Jul-19 15:30N 09°16' W 079°55'1 2.8
2018-Jul-19 15:00N 09°15' W 079°55'  

Dump ship's entire track history